sensor_id;sensor_type;location;lat;lon;timestamp;temperature;humidity
14049;DHT22;7099;53.922;10.728;2023-06-19T00:03:49;19.20;63.30
14049;DHT22;7099;53.922;10.728;2023-06-19T00:07:54;19.10;63.60
14049;DHT22;7099;53.922;10.728;2023-06-19T00:11:59;19.00;64.30
14049;DHT22;7099;53.922;10.728;2023-06-19T00:16:06;19.00;64.40
14049;DHT22;7099;53.922;10.728;2023-06-19T00:20:11;18.90;65.00
14049;DHT22;7099;53.922;10.728;2023-06-19T00:24:18;18.80;64.60
14049;DHT22;7099;53.922;10.728;2023-06-19T00:28:23;18.80;65.10
14049;DHT22;7099;53.922;10.728;2023-06-19T00:32:29;18.70;65.30
14049;DHT22;7099;53.922;10.728;2023-06-19T00:36:35;19.10;65.70
14049;DHT22;7099;53.922;10.728;2023-06-19T00:40:46;19.30;65.00
14049;DHT22;7099;53.922;10.728;2023-06-19T00:44:51;19.40;64.80
14049;DHT22;7099;53.922;10.728;2023-06-19T00:48:57;19.50;65.50
14049;DHT22;7099;53.922;10.728;2023-06-19T00:53:03;19.60;64.80
14049;DHT22;7099;53.922;10.728;2023-06-19T00:57:09;19.60;64.90
14049;DHT22;7099;53.922;10.728;2023-06-19T01:01:15;19.60;64.90
14049;DHT22;7099;53.922;10.728;2023-06-19T01:05:21;19.50;64.60
14049;DHT22;7099;53.922;10.728;2023-06-19T01:09:34;19.60;64.80
14049;DHT22;7099;53.922;10.728;2023-06-19T01:13:53;19.60;65.10
14049;DHT22;7099;53.922;10.728;2023-06-19T01:18:03;19.60;64.80
14049;DHT22;7099;53.922;10.728;2023-06-19T01:22:09;19.70;65.20
14049;DHT22;7099;53.922;10.728;2023-06-19T01:26:17;19.60;64.80
14049;DHT22;7099;53.922;10.728;2023-06-19T01:30:23;19.70;64.80
14049;DHT22;7099;53.922;10.728;2023-06-19T01:34:29;19.70;64.40
14049;DHT22;7099;53.922;10.728;2023-06-19T01:38:36;19.60;64.00
14049;DHT22;7099;53.922;10.728;2023-06-19T01:42:42;19.70;63.60
14049;DHT22;7099;53.922;10.728;2023-06-19T01:46:49;19.60;63.20
14049;DHT22;7099;53.922;10.728;2023-06-19T01:50:55;19.70;63.40
14049;DHT22;7099;53.922;10.728;2023-06-19T01:55:01;19.70;63.80
14049;DHT22;7099;53.922;10.728;2023-06-19T01:59:07;19.60;64.00
14049;DHT22;7099;53.922;10.728;2023-06-19T02:03:13;19.60;64.10
14049;DHT22;7099;53.922;10.728;2023-06-19T02:07:18;19.60;64.20
14049;DHT22;7099;53.922;10.728;2023-06-19T02:11:24;19.60;64.00
14049;DHT22;7099;53.922;10.728;2023-06-19T02:15:29;19.60;63.90
14049;DHT22;7099;53.922;10.728;2023-06-19T02:19:35;19.60;63.70
14049;DHT22;7099;53.922;10.728;2023-06-19T02:23:40;19.60;63.60
14049;DHT22;7099;53.922;10.728;2023-06-19T02:27:46;19.60;64.10
14049;DHT22;7099;53.922;10.728;2023-06-19T02:31:51;19.50;64.20
14049;DHT22;7099;53.922;10.728;2023-06-19T02:35:57;19.50;64.30
14049;DHT22;7099;53.922;10.728;2023-06-19T02:40:05;19.50;64.60
14049;DHT22;7099;53.922;10.728;2023-06-19T02:44:12;19.50;64.60
14049;DHT22;7099;53.922;10.728;2023-06-19T02:48:18;19.50;64.10
14049;DHT22;7099;53.922;10.728;2023-06-19T02:52:24;19.50;63.90
14049;DHT22;7099;53.922;10.728;2023-06-19T02:56:30;19.60;65.00
14049;DHT22;7099;53.922;10.728;2023-06-19T03:00:35;19.60;65.80
14049;DHT22;7099;53.922;10.728;2023-06-19T03:04:41;19.60;65.80
14049;DHT22;7099;53.922;10.728;2023-06-19T03:08:46;19.60;64.80
14049;DHT22;7099;53.922;10.728;2023-06-19T03:12:52;19.60;63.60
14049;DHT22;7099;53.922;10.728;2023-06-19T03:16:57;19.60;63.00
14049;DHT22;7099;53.922;10.728;2023-06-19T03:21:03;19.70;62.90
14049;DHT22;7099;53.922;10.728;2023-06-19T03:25:09;19.70;62.30
14049;DHT22;7099;53.922;10.728;2023-06-19T03:29:14;19.80;62.40
14049;DHT22;7099;53.922;10.728;2023-06-19T03:33:20;19.80;62.10
14049;DHT22;7099;53.922;10.728;2023-06-19T03:37:25;19.80;62.10
14049;DHT22;7099;53.922;10.728;2023-06-19T03:41:31;19.90;62.00
14049;DHT22;7099;53.922;10.728;2023-06-19T03:45:36;19.90;61.70
14049;DHT22;7099;53.922;10.728;2023-06-19T03:49:42;19.90;61.40
14049;DHT22;7099;53.922;10.728;2023-06-19T03:53:47;20.00;61.30
14049;DHT22;7099;53.922;10.728;2023-06-19T03:57:53;20.00;60.70
14049;DHT22;7099;53.922;10.728;2023-06-19T04:01:59;20.10;60.40
14049;DHT22;7099;53.922;10.728;2023-06-19T04:06:04;20.10;60.40
14049;DHT22;7099;53.922;10.728;2023-06-19T04:10:10;20.10;60.00
14049;DHT22;7099;53.922;10.728;2023-06-19T04:14:16;20.20;59.90
14049;DHT22;7099;53.922;10.728;2023-06-19T04:18:22;20.20;59.80
14049;DHT22;7099;53.922;10.728;2023-06-19T04:22:27;20.20;59.80
14049;DHT22;7099;53.922;10.728;2023-06-19T04:26:33;20.30;59.80
14049;DHT22;7099;53.922;10.728;2023-06-19T04:30:38;20.20;59.80
14049;DHT22;7099;53.922;10.728;2023-06-19T04:34:44;20.30;59.80
14049;DHT22;7099;53.922;10.728;2023-06-19T04:38:51;20.40;59.70
14049;DHT22;7099;53.922;10.728;2023-06-19T04:42:58;20.00;60.80
14049;DHT22;7099;53.922;10.728;2023-06-19T04:47:04;19.80;61.50
14049;DHT22;7099;53.922;10.728;2023-06-19T04:51:10;19.80;61.80
14049;DHT22;7099;53.922;10.728;2023-06-19T04:55:16;19.80;62.00
14049;DHT22;7099;53.922;10.728;2023-06-19T04:59:21;19.80;62.30
14049;DHT22;7099;53.922;10.728;2023-06-19T05:03:27;19.80;62.00
14049;DHT22;7099;53.922;10.728;2023-06-19T05:07:32;19.80;62.00
14049;DHT22;7099;53.922;10.728;2023-06-19T05:11:38;19.80;62.00
14049;DHT22;7099;53.922;10.728;2023-06-19T05:15:43;19.80;62.00
14049;DHT22;7099;53.922;10.728;2023-06-19T05:19:49;19.80;62.20
14049;DHT22;7099;53.922;10.728;2023-06-19T05:23:55;19.80;62.30
14049;DHT22;7099;53.922;10.728;2023-06-19T05:28:01;19.90;62.40
14049;DHT22;7099;53.922;10.728;2023-06-19T05:32:10;19.90;62.30
14049;DHT22;7099;53.922;10.728;2023-06-19T05:36:15;19.90;62.80
14049;DHT22;7099;53.922;10.728;2023-06-19T05:40:21;20.00;62.60
14049;DHT22;7099;53.922;10.728;2023-06-19T05:44:27;20.00;62.80
14049;DHT22;7099;53.922;10.728;2023-06-19T05:48:32;20.00;62.80
14049;DHT22;7099;53.922;10.728;2023-06-19T05:52:38;20.00;62.90
14049;DHT22;7099;53.922;10.728;2023-06-19T05:56:47;20.00;63.10
14049;DHT22;7099;53.922;10.728;2023-06-19T06:00:55;20.10;63.10
14049;DHT22;7099;53.922;10.728;2023-06-19T06:05:02;20.10;63.10
14049;DHT22;7099;53.922;10.728;2023-06-19T06:09:08;20.10;63.40
14049;DHT22;7099;53.922;10.728;2023-06-19T06:13:17;20.10;63.30
14049;DHT22;7099;53.922;10.728;2023-06-19T06:17:22;20.10;63.30
14049;DHT22;7099;53.922;10.728;2023-06-19T06:21:28;20.20;63.50
14049;DHT22;7099;53.922;10.728;2023-06-19T06:25:34;20.20;63.40
14049;DHT22;7099;53.922;10.728;2023-06-19T06:29:39;20.20;63.40
14049;DHT22;7099;53.922;10.728;2023-06-19T06:33:45;20.30;63.90
14049;DHT22;7099;53.922;10.728;2023-06-19T06:37:50;20.30;64.00
14049;DHT22;7099;53.922;10.728;2023-06-19T06:41:56;20.30;64.80
14049;DHT22;7099;53.922;10.728;2023-06-19T06:46:01;20.40;65.20
14049;DHT22;7099;53.922;10.728;2023-06-19T06:50:08;20.40;65.80
14049;DHT22;7099;53.922;10.728;2023-06-19T06:54:14;20.40;66.70
14049;DHT22;7099;53.922;10.728;2023-06-19T06:58:20;20.30;66.80
14049;DHT22;7099;53.922;10.728;2023-06-19T07:02:26;20.40;66.00
14049;DHT22;7099;53.922;10.728;2023-06-19T07:06:32;20.40;65.40
14049;DHT22;7099;53.922;10.728;2023-06-19T07:10:37;20.40;64.80
14049;DHT22;7099;53.922;10.728;2023-06-19T07:14:43;20.50;65.00
14049;DHT22;7099;53.922;10.728;2023-06-19T07:18:48;20.60;65.10
14049;DHT22;7099;53.922;10.728;2023-06-19T07:22:54;20.60;64.50
14049;DHT22;7099;53.922;10.728;2023-06-19T07:26:59;20.60;64.10
14049;DHT22;7099;53.922;10.728;2023-06-19T07:31:05;20.70;64.10
14049;DHT22;7099;53.922;10.728;2023-06-19T07:35:11;20.80;64.60
14049;DHT22;7099;53.922;10.728;2023-06-19T07:39:16;20.80;64.80
14049;DHT22;7099;53.922;10.728;2023-06-19T07:43:22;20.90;64.70
14049;DHT22;7099;53.922;10.728;2023-06-19T07:47:27;20.90;65.30
14049;DHT22;7099;53.922;10.728;2023-06-19T07:51:33;21.00;66.20
14049;DHT22;7099;53.922;10.728;2023-06-19T07:55:39;21.00;66.50
14049;DHT22;7099;53.922;10.728;2023-06-19T07:59:44;21.00;65.90
14049;DHT22;7099;53.922;10.728;2023-06-19T08:03:50;21.10;66.30
14049;DHT22;7099;53.922;10.728;2023-06-19T08:07:56;21.20;66.80
14049;DHT22;7099;53.922;10.728;2023-06-19T08:12:04;21.20;67.90
14049;DHT22;7099;53.922;10.728;2023-06-19T08:16:09;21.30;67.20
14049;DHT22;7099;53.922;10.728;2023-06-19T08:20:15;21.30;67.80
14049;DHT22;7099;53.922;10.728;2023-06-19T08:24:21;21.40;68.30
14049;DHT22;7099;53.922;10.728;2023-06-19T08:28:26;21.50;67.50
14049;DHT22;7099;53.922;10.728;2023-06-19T08:32:32;21.60;66.80
14049;DHT22;7099;53.922;10.728;2023-06-19T08:36:40;21.60;66.50
14049;DHT22;7099;53.922;10.728;2023-06-19T08:40:45;21.70;66.30
14049;DHT22;7099;53.922;10.728;2023-06-19T08:44:51;21.80;65.20
14049;DHT22;7099;53.922;10.728;2023-06-19T08:48:56;21.90;64.80
14049;DHT22;7099;53.922;10.728;2023-06-19T08:53:02;22.00;65.20
14049;DHT22;7099;53.922;10.728;2023-06-19T08:57:07;22.10;64.40
14049;DHT22;7099;53.922;10.728;2023-06-19T09:01:18;22.20;64.50
14049;DHT22;7099;53.922;10.728;2023-06-19T09:05:24;22.20;64.40
14049;DHT22;7099;53.922;10.728;2023-06-19T09:09:30;22.30;64.40
14049;DHT22;7099;53.922;10.728;2023-06-19T09:13:38;22.40;64.50
14049;DHT22;7099;53.922;10.728;2023-06-19T09:17:43;22.50;63.70
14049;DHT22;7099;53.922;10.728;2023-06-19T09:21:49;22.60;64.70
14049;DHT22;7099;53.922;10.728;2023-06-19T09:25:57;22.70;64.30
14049;DHT22;7099;53.922;10.728;2023-06-19T09:30:05;22.90;64.00
14049;DHT22;7099;53.922;10.728;2023-06-19T09:34:11;23.10;63.40
14049;DHT22;7099;53.922;10.728;2023-06-19T09:38:17;23.30;61.70
14049;DHT22;7099;53.922;10.728;2023-06-19T09:42:32;23.60;62.30
14049;DHT22;7099;53.922;10.728;2023-06-19T09:46:41;23.90;61.60
14049;DHT22;7099;53.922;10.728;2023-06-19T09:50:51;24.20;61.50
14049;DHT22;7099;53.922;10.728;2023-06-19T09:55:02;24.40;59.50
14049;DHT22;7099;53.922;10.728;2023-06-19T09:59:10;24.70;58.90
14049;DHT22;7099;53.922;10.728;2023-06-19T10:03:15;25.00;59.20
14049;DHT22;7099;53.922;10.728;2023-06-19T10:07:23;25.40;57.50
14049;DHT22;7099;53.922;10.728;2023-06-19T10:11:47;25.70;56.20
14049;DHT22;7099;53.922;10.728;2023-06-19T10:15:59;26.10;55.10
14049;DHT22;7099;53.922;10.728;2023-06-19T10:20:06;26.40;53.80
14049;DHT22;7099;53.922;10.728;2023-06-19T10:24:19;26.60;53.80
14049;DHT22;7099;53.922;10.728;2023-06-19T10:28:31;26.80;53.70
14049;DHT22;7099;53.922;10.728;2023-06-19T10:32:38;27.10;53.30
14049;DHT22;7099;53.922;10.728;2023-06-19T10:36:43;27.20;53.60
14049;DHT22;7099;53.922;10.728;2023-06-19T10:40:49;27.40;52.90
14049;DHT22;7099;53.922;10.728;2023-06-19T10:45:05;27.70;52.40
14049;DHT22;7099;53.922;10.728;2023-06-19T10:49:14;27.90;52.90
14049;DHT22;7099;53.922;10.728;2023-06-19T10:53:25;28.00;51.50
14049;DHT22;7099;53.922;10.728;2023-06-19T10:57:37;28.20;51.30
14049;DHT22;7099;53.922;10.728;2023-06-19T11:01:46;28.30;50.60
14049;DHT22;7099;53.922;10.728;2023-06-19T11:05:52;28.40;49.70
14049;DHT22;7099;53.922;10.728;2023-06-19T11:09:58;28.60;49.60
14049;DHT22;7099;53.922;10.728;2023-06-19T11:14:04;28.80;49.40
14049;DHT22;7099;53.922;10.728;2023-06-19T11:18:10;28.90;49.10
14049;DHT22;7099;53.922;10.728;2023-06-19T11:22:15;29.10;48.90
14049;DHT22;7099;53.922;10.728;2023-06-19T11:26:24;29.20;48.60
14049;DHT22;7099;53.922;10.728;2023-06-19T11:30:33;29.40;47.60
14049;DHT22;7099;53.922;10.728;2023-06-19T11:34:41;29.50;47.70
14049;DHT22;7099;53.922;10.728;2023-06-19T11:38:46;29.70;47.20
14049;DHT22;7099;53.922;10.728;2023-06-19T11:42:53;29.80;46.70
14049;DHT22;7099;53.922;10.728;2023-06-19T11:46:59;29.90;46.50
14049;DHT22;7099;53.922;10.728;2023-06-19T11:51:05;30.10;45.50
14049;DHT22;7099;53.922;10.728;2023-06-19T11:55:10;30.30;45.40
14049;DHT22;7099;53.922;10.728;2023-06-19T11:59:16;30.20;44.70
14049;DHT22;7099;53.922;10.728;2023-06-19T12:03:21;30.20;45.40
14049;DHT22;7099;53.922;10.728;2023-06-19T12:07:27;30.20;44.70
14049;DHT22;7099;53.922;10.728;2023-06-19T12:11:33;30.30;43.80
14049;DHT22;7099;53.922;10.728;2023-06-19T12:15:38;30.40;44.40
14049;DHT22;7099;53.922;10.728;2023-06-19T12:19:44;30.40;43.50
14049;DHT22;7099;53.922;10.728;2023-06-19T12:23:49;30.40;43.40
14049;DHT22;7099;53.922;10.728;2023-06-19T12:27:55;30.40;43.30
14049;DHT22;7099;53.922;10.728;2023-06-19T12:32:01;30.60;43.10
14049;DHT22;7099;53.922;10.728;2023-06-19T12:36:08;30.80;42.60
14049;DHT22;7099;53.922;10.728;2023-06-19T12:40:15;31.00;41.90
14049;DHT22;7099;53.922;10.728;2023-06-19T12:44:22;31.00;42.00
14049;DHT22;7099;53.922;10.728;2023-06-19T12:48:28;31.10;42.90
14049;DHT22;7099;53.922;10.728;2023-06-19T12:52:34;31.20;42.50
14049;DHT22;7099;53.922;10.728;2023-06-19T12:56:40;31.30;42.20
14049;DHT22;7099;53.922;10.728;2023-06-19T13:00:45;31.30;42.40
14049;DHT22;7099;53.922;10.728;2023-06-19T13:04:52;31.30;43.10
14049;DHT22;7099;53.922;10.728;2023-06-19T13:08:58;31.30;42.30
14049;DHT22;7099;53.922;10.728;2023-06-19T13:13:04;31.40;43.20
14049;DHT22;7099;53.922;10.728;2023-06-19T13:17:10;31.40;42.40
14049;DHT22;7099;53.922;10.728;2023-06-19T13:21:16;31.30;42.30
14049;DHT22;7099;53.922;10.728;2023-06-19T13:25:21;31.30;42.50
14049;DHT22;7099;53.922;10.728;2023-06-19T13:29:28;31.40;43.20
14049;DHT22;7099;53.922;10.728;2023-06-19T13:33:33;31.50;43.30
14049;DHT22;7099;53.922;10.728;2023-06-19T13:37:38;31.50;43.20
14049;DHT22;7099;53.922;10.728;2023-06-19T13:41:44;31.50;42.80
14049;DHT22;7099;53.922;10.728;2023-06-19T13:45:50;31.60;43.30
14049;DHT22;7099;53.922;10.728;2023-06-19T13:49:56;31.70;43.10
14049;DHT22;7099;53.922;10.728;2023-06-19T13:54:02;31.80;42.80
14049;DHT22;7099;53.922;10.728;2023-06-19T13:58:09;31.90;42.10
14049;DHT22;7099;53.922;10.728;2023-06-19T14:02:14;31.90;41.20
14049;DHT22;7099;53.922;10.728;2023-06-19T14:06:20;32.10;42.90
14049;DHT22;7099;53.922;10.728;2023-06-19T14:10:26;32.30;42.20
14049;DHT22;7099;53.922;10.728;2023-06-19T14:14:31;32.40;41.80
14049;DHT22;7099;53.922;10.728;2023-06-19T14:18:37;32.30;42.40
14049;DHT22;7099;53.922;10.728;2023-06-19T14:22:42;32.30;40.90
14049;DHT22;7099;53.922;10.728;2023-06-19T14:26:48;32.30;40.80
14049;DHT22;7099;53.922;10.728;2023-06-19T14:30:54;32.10;40.70
14049;DHT22;7099;53.922;10.728;2023-06-19T14:34:59;32.10;41.50
14049;DHT22;7099;53.922;10.728;2023-06-19T14:39:05;32.30;42.10
14049;DHT22;7099;53.922;10.728;2023-06-19T14:43:10;32.60;42.50
14049;DHT22;7099;53.922;10.728;2023-06-19T14:47:16;32.80;41.40
14049;DHT22;7099;53.922;10.728;2023-06-19T14:51:22;32.80;39.70
14049;DHT22;7099;53.922;10.728;2023-06-19T14:55:27;32.80;40.30
14049;DHT22;7099;53.922;10.728;2023-06-19T14:59:33;32.90;40.00
14049;DHT22;7099;53.922;10.728;2023-06-19T15:03:38;33.00;40.00
14049;DHT22;7099;53.922;10.728;2023-06-19T15:07:44;32.90;40.10
14049;DHT22;7099;53.922;10.728;2023-06-19T15:11:49;32.80;40.10
14049;DHT22;7099;53.922;10.728;2023-06-19T15:15:55;32.50;40.20
14049;DHT22;7099;53.922;10.728;2023-06-19T15:20:00;32.10;40.70
14049;DHT22;7099;53.922;10.728;2023-06-19T15:24:07;31.70;41.50
14049;DHT22;7099;53.922;10.728;2023-06-19T15:28:13;31.60;41.70
14049;DHT22;7099;53.922;10.728;2023-06-19T15:32:18;31.50;41.70
14049;DHT22;7099;53.922;10.728;2023-06-19T15:36:24;31.40;42.90
14049;DHT22;7099;53.922;10.728;2023-06-19T15:40:29;31.40;42.20
14049;DHT22;7099;53.922;10.728;2023-06-19T15:44:36;31.60;42.60
14049;DHT22;7099;53.922;10.728;2023-06-19T15:48:42;31.50;43.20
14049;DHT22;7099;53.922;10.728;2023-06-19T15:52:48;31.30;43.10
14049;DHT22;7099;53.922;10.728;2023-06-19T15:56:54;31.10;44.00
14049;DHT22;7099;53.922;10.728;2023-06-19T16:01:02;30.90;45.30
14049;DHT22;7099;53.922;10.728;2023-06-19T16:05:08;30.60;45.80
14049;DHT22;7099;53.922;10.728;2023-06-19T16:09:14;30.40;46.40
14049;DHT22;7099;53.922;10.728;2023-06-19T16:13:19;30.30;46.90
14049;DHT22;7099;53.922;10.728;2023-06-19T16:17:25;30.10;46.80
14049;DHT22;7099;53.922;10.728;2023-06-19T16:21:31;29.80;47.50
14049;DHT22;7099;53.922;10.728;2023-06-19T16:25:36;29.80;48.00
14049;DHT22;7099;53.922;10.728;2023-06-19T16:29:42;29.80;48.30
14049;DHT22;7099;53.922;10.728;2023-06-19T16:33:47;29.80;48.20
14049;DHT22;7099;53.922;10.728;2023-06-19T16:37:53;29.70;48.40
14049;DHT22;7099;53.922;10.728;2023-06-19T16:41:59;29.70;48.30
14049;DHT22;7099;53.922;10.728;2023-06-19T16:46:05;29.50;48.50
14049;DHT22;7099;53.922;10.728;2023-06-19T16:50:10;29.60;48.80
14049;DHT22;7099;53.922;10.728;2023-06-19T16:54:16;29.70;48.70
14049;DHT22;7099;53.922;10.728;2023-06-19T16:58:25;29.70;48.30
14049;DHT22;7099;53.922;10.728;2023-06-19T17:02:31;29.80;48.40
14049;DHT22;7099;53.922;10.728;2023-06-19T17:06:37;29.80;48.50
14049;DHT22;7099;53.922;10.728;2023-06-19T17:10:42;29.80;48.00
14049;DHT22;7099;53.922;10.728;2023-06-19T17:14:48;29.80;48.40
14049;DHT22;7099;53.922;10.728;2023-06-19T17:18:53;29.80;48.10
14049;DHT22;7099;53.922;10.728;2023-06-19T17:22:59;29.50;48.70
14049;DHT22;7099;53.922;10.728;2023-06-19T17:27:05;29.40;49.00
14049;DHT22;7099;53.922;10.728;2023-06-19T17:31:10;29.40;49.50
14049;DHT22;7099;53.922;10.728;2023-06-19T17:35:16;29.30;49.00
14049;DHT22;7099;53.922;10.728;2023-06-19T17:39:22;29.30;49.00
14049;DHT22;7099;53.922;10.728;2023-06-19T17:43:27;29.30;49.00
14049;DHT22;7099;53.922;10.728;2023-06-19T17:47:33;29.30;49.00
14049;DHT22;7099;53.922;10.728;2023-06-19T17:51:38;29.20;48.90
14049;DHT22;7099;53.922;10.728;2023-06-19T17:55:44;29.20;48.90
14049;DHT22;7099;53.922;10.728;2023-06-19T17:59:50;29.10;49.10
14049;DHT22;7099;53.922;10.728;2023-06-19T18:03:55;28.90;49.10
14049;DHT22;7099;53.922;10.728;2023-06-19T18:08:02;28.80;49.30
14049;DHT22;7099;53.922;10.728;2023-06-19T18:12:07;28.60;49.70
14049;DHT22;7099;53.922;10.728;2023-06-19T18:16:14;28.50;50.40
14049;DHT22;7099;53.922;10.728;2023-06-19T18:20:20;28.60;50.20
14049;DHT22;7099;53.922;10.728;2023-06-19T18:24:26;28.50;50.10
14049;DHT22;7099;53.922;10.728;2023-06-19T18:28:31;28.30;50.20
14049;DHT22;7099;53.922;10.728;2023-06-19T18:32:37;28.20;50.40
14049;DHT22;7099;53.922;10.728;2023-06-19T18:36:42;28.00;50.50
14049;DHT22;7099;53.922;10.728;2023-06-19T18:40:48;27.90;50.70
14049;DHT22;7099;53.922;10.728;2023-06-19T18:44:53;27.70;50.90
14049;DHT22;7099;53.922;10.728;2023-06-19T18:48:59;27.50;51.40
14049;DHT22;7099;53.922;10.728;2023-06-19T18:53:04;27.30;51.80
14049;DHT22;7099;53.922;10.728;2023-06-19T18:57:12;27.20;52.20
14049;DHT22;7099;53.922;10.728;2023-06-19T19:01:17;27.10;52.50
14049;DHT22;7099;53.922;10.728;2023-06-19T19:05:23;27.00;52.80
14049;DHT22;7099;53.922;10.728;2023-06-19T19:09:28;27.00;53.00
14049;DHT22;7099;53.922;10.728;2023-06-19T19:13:34;26.90;53.20
14049;DHT22;7099;53.922;10.728;2023-06-19T19:17:39;26.70;53.50
14049;DHT22;7099;53.922;10.728;2023-06-19T19:21:45;26.60;54.00
14049;DHT22;7099;53.922;10.728;2023-06-19T19:25:50;26.50;54.40
14049;DHT22;7099;53.922;10.728;2023-06-19T19:29:56;26.40;54.60
14049;DHT22;7099;53.922;10.728;2023-06-19T19:34:02;26.30;55.10
14049;DHT22;7099;53.922;10.728;2023-06-19T19:38:08;26.20;55.40
14049;DHT22;7099;53.922;10.728;2023-06-19T19:42:14;26.10;55.40
14049;DHT22;7099;53.922;10.728;2023-06-19T19:46:20;26.00;55.80
14049;DHT22;7099;53.922;10.728;2023-06-19T19:50:26;25.90;55.90
14049;DHT22;7099;53.922;10.728;2023-06-19T19:54:32;25.70;56.10
14049;DHT22;7099;53.922;10.728;2023-06-19T19:58:38;25.60;56.60
14049;DHT22;7099;53.922;10.728;2023-06-19T20:02:43;25.50;56.80
14049;DHT22;7099;53.922;10.728;2023-06-19T20:06:50;25.30;57.40
14049;DHT22;7099;53.922;10.728;2023-06-19T20:10:55;25.20;57.70
14049;DHT22;7099;53.922;10.728;2023-06-19T20:15:01;25.00;57.70
14049;DHT22;7099;53.922;10.728;2023-06-19T20:19:09;24.90;58.10
14049;DHT22;7099;53.922;10.728;2023-06-19T20:23:15;24.80;58.10
14049;DHT22;7099;53.922;10.728;2023-06-19T20:27:20;24.50;58.40
14049;DHT22;7099;53.922;10.728;2023-06-19T20:31:26;24.40;58.50
14049;DHT22;7099;53.922;10.728;2023-06-19T20:35:32;24.30;59.00
14049;DHT22;7099;53.922;10.728;2023-06-19T20:39:38;24.20;59.40
14049;DHT22;7099;53.922;10.728;2023-06-19T20:43:44;24.00;59.40
14049;DHT22;7099;53.922;10.728;2023-06-19T20:47:53;23.90;59.90
14049;DHT22;7099;53.922;10.728;2023-06-19T20:51:59;23.70;60.20
14049;DHT22;7099;53.922;10.728;2023-06-19T20:56:05;23.70;60.00
14049;DHT22;7099;53.922;10.728;2023-06-19T21:00:11;23.50;60.40
14049;DHT22;7099;53.922;10.728;2023-06-19T21:04:17;23.40;60.80
14049;DHT22;7099;53.922;10.728;2023-06-19T21:08:24;23.20;60.90
14049;DHT22;7099;53.922;10.728;2023-06-19T21:12:36;23.10;61.10
14049;DHT22;7099;53.922;10.728;2023-06-19T21:16:41;23.00;61.40
14049;DHT22;7099;53.922;10.728;2023-06-19T21:20:47;23.00;61.80
14049;DHT22;7099;53.922;10.728;2023-06-19T21:24:55;22.80;62.00
14049;DHT22;7099;53.922;10.728;2023-06-19T21:29:01;22.70;62.20
14049;DHT22;7099;53.922;10.728;2023-06-19T21:33:06;22.60;62.50
14049;DHT22;7099;53.922;10.728;2023-06-19T21:37:12;22.50;62.80
14049;DHT22;7099;53.922;10.728;2023-06-19T21:41:17;22.40;62.90
14049;DHT22;7099;53.922;10.728;2023-06-19T21:45:22;22.30;63.30
14049;DHT22;7099;53.922;10.728;2023-06-19T21:49:29;22.20;63.60
14049;DHT22;7099;53.922;10.728;2023-06-19T21:53:34;22.10;63.90
14049;DHT22;7099;53.922;10.728;2023-06-19T21:57:40;22.00;64.00
14049;DHT22;7099;53.922;10.728;2023-06-19T22:01:50;21.90;64.20
14049;DHT22;7099;53.922;10.728;2023-06-19T22:05:56;21.80;64.40
14049;DHT22;7099;53.922;10.728;2023-06-19T22:10:03;21.60;64.60
14049;DHT22;7099;53.922;10.728;2023-06-19T22:14:09;21.50;64.90
14049;DHT22;7099;53.922;10.728;2023-06-19T22:18:15;21.40;65.00
14049;DHT22;7099;53.922;10.728;2023-06-19T22:22:23;21.30;65.00
14049;DHT22;7099;53.922;10.728;2023-06-19T22:26:28;21.30;65.00
14049;DHT22;7099;53.922;10.728;2023-06-19T22:30:42;21.20;65.00
14049;DHT22;7099;53.922;10.728;2023-06-19T22:34:47;21.00;64.90
14049;DHT22;7099;53.922;10.728;2023-06-19T22:38:52;20.90;65.30
14049;DHT22;7099;53.922;10.728;2023-06-19T22:42:58;20.80;65.50
14049;DHT22;7099;53.922;10.728;2023-06-19T22:47:04;20.70;65.60
14049;DHT22;7099;53.922;10.728;2023-06-19T22:51:10;20.60;65.50
14049;DHT22;7099;53.922;10.728;2023-06-19T22:55:16;20.50;65.70
14049;DHT22;7099;53.922;10.728;2023-06-19T22:59:21;20.40;65.90
14049;DHT22;7099;53.922;10.728;2023-06-19T23:03:26;20.30;66.10
14049;DHT22;7099;53.922;10.728;2023-06-19T23:07:32;20.20;66.50
14049;DHT22;7099;53.922;10.728;2023-06-19T23:11:39;20.10;66.40
14049;DHT22;7099;53.922;10.728;2023-06-19T23:15:44;20.10;66.60
14049;DHT22;7099;53.922;10.728;2023-06-19T23:19:50;20.00;66.80
14049;DHT22;7099;53.922;10.728;2023-06-19T23:23:56;20.30;67.30
14049;DHT22;7099;53.922;10.728;2023-06-19T23:28:02;20.10;66.80
14049;DHT22;7099;53.922;10.728;2023-06-19T23:32:08;19.90;67.00
14049;DHT22;7099;53.922;10.728;2023-06-19T23:36:13;19.80;67.20
14049;DHT22;7099;53.922;10.728;2023-06-19T23:40:19;19.70;67.50
14049;DHT22;7099;53.922;10.728;2023-06-19T23:44:24;19.60;67.40
14049;DHT22;7099;53.922;10.728;2023-06-19T23:48:30;19.50;67.50
14049;DHT22;7099;53.922;10.728;2023-06-19T23:52:35;19.40;67.60
14049;DHT22;7099;53.922;10.728;2023-06-19T23:56:48;19.30;67.80
